This is the latest recevied weather packets stored in our database for station/object OE6PWE-13. If no packets are shown the sender has not sent any weather packets the latest 10 day(s).
| Time | Temp. | Humidity | Pressure | Rain* | Wind** | Luminosity | Snow |
|---|---|---|---|---|---|---|---|
| 1788039012 | 15.56° C | 92% | 1017 hPa | 0 mm | - | - | - |
| 1788038112 | 16.11° C | 91% | 1017 hPa | 0 mm | - | - | - |
| 1788035412 | 16.67° C | 88% | 1017 hPa | 0 mm | - | - | - |
| 1788032712 | 17.22° C | 86% | 1017 hPa | 0 mm | - | - | - |
| 1788031812 | 17.78° C | 84% | 1017 hPa | 0 mm | - | - | - |
| 1788030911 | 18.33° C | 83% | 1017 hPa | 0 mm | - | - | - |
| 1788028212 | 20° C | 79% | 1016 hPa | 0 mm | - | - | - |
| 1788026412 | 21.11° C | 69% | 1016 hPa | 0 mm | - | - | - |
| 1788025512 | 22.22° C | 68% | 1015 hPa | 0 mm | - | - | - |
| 1788024612 | 23.33° C | 64% | 1015 hPa | 0 mm | - | - | - |
| 1788023712 | 24.44° C | 61% | 1015 hPa | 0 mm | - | - | - |
| 1788019212 | 26.67° C | 51% | 1015 hPa | 0 mm | - | - | - |
| 1788017412 | 26.67° C | 51% | 1015 hPa | 0 mm | - | - | - |
| 1788016512 | 26.67° C | 52% | 1015 hPa | 0 mm | - | - | - |
| 1788015612 | 27.22° C | 52% | 1015 hPa | 0 mm | - | - | - |
| 1788014712 | 26.67° C | 55% | 1015 hPa | 0 mm | - | - | - |
| 1788010212 | 26.11° C | 51% | 1016 hPa | 0 mm | - | - | - |
| 1788009312 | 26.11° C | 50% | 1016 hPa | 0 mm | - | - | - |
| 1788008412 | 25.56° C | 55% | 1016 hPa | 0 mm | - | - | - |
| 1788006612 | 24.44° C | 62% | 1017 hPa | 0 mm | - | - | - |
| 1788005712 | 23.33° C | 61% | 1017 hPa | 0 mm | - | - | - |
| 1788003912 | 23.89° C | 65% | 1017 hPa | 0 mm | - | - | - |
| 1788003012 | 22.78° C | 68% | 1017 hPa | 0 mm | - | - | - |
| 1788002111 | 22.78° C | 70% | 1017 hPa | 0 mm | - | - | - |
| 1788001211 | 23.33° C | 67% | 1017 hPa | 0 mm | - | - | - |
* Rain latest hour (hover to see other rain measurements)
** Current wind speed in m/s (hover to see current wind gust speed)